createdAt,value
2022-12-29T04:35:00.903Z,13.60
2022-12-29T04:50:07.531Z,13.50
2022-12-29T05:05:12.318Z,13.50
2022-12-29T05:20:20.911Z,13.50
2022-12-29T05:35:25.697Z,13.60
2022-12-29T05:50:30.618Z,13.30
2022-12-29T06:05:49.739Z,13.10
2022-12-29T06:20:55.168Z,13.30
2022-12-29T06:36:02.467Z,13.30
2022-12-29T06:51:08.710Z,13.10
2022-12-29T07:06:13.185Z,13.20
2022-12-29T07:21:17.724Z,13.10
2022-12-29T07:36:22.299Z,13.20
2022-12-29T07:51:26.716Z,13.20
2022-12-29T08:06:31.722Z,13.20
2022-12-29T08:21:36.401Z,13.30
2022-12-29T08:36:40.911Z,13.10
2022-12-29T08:51:45.415Z,13.40
2022-12-29T09:06:50.085Z,13.40
2022-12-29T09:21:54.448Z,13.40
2022-12-29T09:36:58.984Z,13.10
2022-12-29T09:52:08.359Z,13.20
2022-12-29T10:07:29.664Z,13.50
2022-12-29T10:22:50.518Z,13.50
2022-12-29T10:38:00.491Z,13.60
2022-12-29T10:53:07.682Z,13.60
2022-12-29T11:08:15.960Z,13.70
2022-12-29T11:23:31.914Z,13.60
2022-12-29T11:38:38.179Z,13.50
2022-12-29T11:53:47.943Z,13.60
2022-12-29T12:08:57.692Z,13.50
2022-12-29T12:24:22.393Z,13.80
2022-12-29T12:39:33.010Z,13.90
2022-12-29T12:54:54.397Z,13.70
2022-12-29T13:10:14.754Z,14.00
2022-12-29T13:25:29.433Z,14.20
2022-12-29T13:40:40.783Z,14.40
2022-12-29T13:55:53.104Z,13.90
2022-12-29T14:10:57.617Z,14.10
2022-12-29T14:26:13.105Z,13.90
2022-12-29T14:41:29.477Z,13.80
2022-12-29T14:56:42.201Z,13.70
2022-12-29T15:11:53.959Z,13.90
2022-12-29T15:26:58.532Z,13.80
2022-12-29T15:42:17.761Z,13.50
2022-12-29T15:57:25.378Z,13.50
2022-12-29T16:12:34.036Z,13.40
2022-12-29T16:27:42.128Z,13.40
2022-12-29T16:42:52.284Z,13.30
2022-12-29T16:57:59.176Z,13.60
2022-12-29T17:13:03.701Z,13.50
2022-12-29T17:28:21.095Z,13.30
2022-12-29T17:43:29.008Z,13.50
2022-12-29T17:58:37.357Z,13.60
2022-12-29T18:13:46.424Z,13.30
2022-12-29T18:28:53.315Z,13.40
2022-12-29T18:43:58.335Z,13.10
2022-12-29T18:59:02.777Z,12.70
2022-12-29T19:14:07.218Z,13.00
2022-12-29T19:29:16.347Z,12.80
2022-12-29T19:44:20.731Z,12.70
2022-12-29T19:59:25.214Z,12.60
2022-12-29T20:14:29.709Z,12.40
2022-12-29T20:29:38.863Z,12.60
2022-12-29T20:44:43.681Z,12.40
2022-12-29T20:59:48.142Z,12.40
2022-12-29T21:14:52.633Z,12.50
